CES561 ZSPD-YSSY
Flight info
| Callsign | CES561 |
|---|---|
| Flight time | N/A |
| Altitude | 39000 |
| Route | LAM93D/35R LAMEN A593 SADLI Y590 BEDAR Y591 ISPIT Z41 AGIKA G339 SABGU/N0491F380 A339 KEITH/N0494F370 R204 KYWEE/N0489F390 R204 HID/N0484F410 R204 CS Y177 AKROM Y153 ROKUU H652 BOREE |
| Aircraft | A359/H-SDE2E3GHIJ3J4J5LM1ORWXY/LB1D1 |
Departure
| Time | N/A |
|---|---|
| Airport | Shanghai Pudong International Airport (ZSPD) |
Arrival
| Time | 2026-05-03 22:00 |
|---|---|
| Airport | Sydney Kingsford Smith International Airport (YSSY) |
| Time | Latitude | Longitude | Altitude | Speed | Heading |
|---|---|---|---|---|---|
| 2026-05-03 20:15 | -20.95562 | 147.50029 | 41078 ft | 516 kts | 172° |
| 2026-05-03 20:15 | -21.02529 | 147.51936 | 41073 ft | 517 kts | 172° |
| 2026-05-03 20:16 | -21.09503 | 147.53848 | 41072 ft | 517 kts | 172° |
| 2026-05-03 20:16 | -21.16479 | 147.55763 | 41072 ft | 517 kts | 172° |
| 2026-05-03 20:17 | -21.23455 | 147.57679 | 41076 ft | 517 kts | 172° |
| 2026-05-03 20:17 | -21.30428 | 147.59596 | 41078 ft | 517 kts | 172° |
| 2026-05-03 20:18 | -21.37403 | 147.61513 | 41080 ft | 517 kts | 172° |
| 2026-05-03 20:18 | -21.44375 | 147.63427 | 41081 ft | 517 kts | 172° |
| 2026-05-03 20:19 | -21.51350 | 147.65339 | 41091 ft | 517 kts | 172° |
| 2026-05-03 20:19 | -21.58322 | 147.67265 | 41085 ft | 517 kts | 172° |
| 2026-05-03 20:20 | -21.65295 | 147.69199 | 41085 ft | 518 kts | 172° |
| 2026-05-03 20:20 | -21.72271 | 147.71133 | 41083 ft | 518 kts | 172° |
| 2026-05-03 20:21 | -21.79245 | 147.73063 | 41084 ft | 518 kts | 172° |
| 2026-05-03 20:21 | -21.86220 | 147.74998 | 41081 ft | 518 kts | 172° |
| 2026-05-03 20:22 | -21.93205 | 147.76945 | 41087 ft | 519 kts | 172° |
| 2026-05-03 20:22 | -22.00193 | 147.78888 | 41094 ft | 519 kts | 172° |
| 2026-05-03 20:23 | -22.07180 | 147.80830 | 41086 ft | 519 kts | 172° |
| 2026-05-03 20:23 | -22.14170 | 147.82774 | 41105 ft | 519 kts | 172° |
| 2026-05-03 20:24 | -22.21161 | 147.84728 | 41095 ft | 519 kts | 172° |
| 2026-05-03 20:24 | -22.28154 | 147.86682 | 41100 ft | 519 kts | 172° |
| 2026-05-03 20:25 | -22.35147 | 147.88633 | 41104 ft | 519 kts | 172° |
| 2026-05-03 20:25 | -22.42144 | 147.90585 | 41113 ft | 519 kts | 173° |
| 2026-05-03 20:26 | -22.49144 | 147.92553 | 41102 ft | 520 kts | 173° |
| 2026-05-03 20:26 | -22.56142 | 147.94521 | 41107 ft | 520 kts | 173° |
| 2026-05-03 20:27 | -22.63140 | 147.96484 | 41116 ft | 519 kts | 173° |
| 2026-05-03 20:27 | -22.70134 | 147.98446 | 41131 ft | 519 kts | 173° |
| 2026-05-03 20:28 | -22.77131 | 148.00419 | 41109 ft | 520 kts | 173° |
| 2026-05-03 20:28 | -22.84130 | 148.02395 | 41107 ft | 520 kts | 173° |
| 2026-05-03 20:29 | -22.91125 | 148.04368 | 41110 ft | 520 kts | 173° |
| 2026-05-03 20:29 | -22.98126 | 148.06342 | 41114 ft | 520 kts | 173° |
| 2026-05-03 20:30 | -23.05124 | 148.08329 | 41112 ft | 520 kts | 173° |
| 2026-05-03 20:30 | -23.12132 | 148.10333 | 41111 ft | 521 kts | 173° |
| 2026-05-03 20:31 | -23.19144 | 148.12338 | 41114 ft | 521 kts | 173° |
| 2026-05-03 20:31 | -23.26157 | 148.14340 | 41113 ft | 521 kts | 173° |
| 2026-05-03 20:32 | -23.33166 | 148.16347 | 41112 ft | 521 kts | 173° |
| 2026-05-03 20:32 | -23.39002 | 148.18028 | 41114 ft | 522 kts | 173° |
| 2026-05-03 20:33 | -23.46029 | 148.20051 | 41113 ft | 522 kts | 173° |
| 2026-05-03 20:33 | -23.53052 | 148.22063 | 41114 ft | 522 kts | 173° |
| 2026-05-03 20:34 | -23.60073 | 148.24073 | 41121 ft | 522 kts | 173° |
| 2026-05-03 20:34 | -23.67099 | 148.26094 | 41116 ft | 522 kts | 173° |
| 2026-05-03 20:35 | -23.74128 | 148.28115 | 41112 ft | 522 kts | 173° |
| 2026-05-03 20:35 | -23.81158 | 148.30136 | 41113 ft | 522 kts | 173° |
| 2026-05-03 20:36 | -23.88189 | 148.32153 | 41130 ft | 523 kts | 173° |
| 2026-05-03 20:36 | -23.95226 | 148.34182 | 41116 ft | 524 kts | 173° |
| 2026-05-03 20:37 | -24.02275 | 148.36214 | 41119 ft | 524 kts | 173° |
| 2026-05-03 20:37 | -24.09326 | 148.38246 | 41119 ft | 524 kts | 173° |
| 2026-05-03 20:38 | -24.16376 | 148.40276 | 41122 ft | 524 kts | 173° |
| 2026-05-03 20:38 | -24.23426 | 148.42303 | 41122 ft | 524 kts | 173° |
| 2026-05-03 20:39 | -24.30479 | 148.44329 | 41121 ft | 524 kts | 173° |
| 2026-05-03 20:39 | -24.37528 | 148.46351 | 41121 ft | 524 kts | 173° |
| 2026-05-03 20:40 | -24.44581 | 148.48371 | 41136 ft | 524 kts | 173° |
| 2026-05-03 20:40 | -24.51631 | 148.50391 | 41125 ft | 524 kts | 173° |
| 2026-05-03 20:41 | -24.58682 | 148.52413 | 41127 ft | 524 kts | 173° |
| 2026-05-03 20:41 | -24.65733 | 148.54434 | 41127 ft | 524 kts | 173° |
| 2026-05-03 20:42 | -24.72786 | 148.56455 | 41129 ft | 524 kts | 173° |
| 2026-05-03 20:42 | -24.79838 | 148.58486 | 41129 ft | 525 kts | 173° |
| 2026-05-03 20:43 | -24.86907 | 148.60529 | 41135 ft | 525 kts | 173° |
| 2026-05-03 20:43 | -24.93979 | 148.62573 | 41138 ft | 525 kts | 173° |
| 2026-05-03 20:44 | -25.01050 | 148.64615 | 41138 ft | 525 kts | 173° |
| 2026-05-03 20:44 | -25.08127 | 148.66666 | 41139 ft | 526 kts | 173° |
| 2026-05-03 20:45 | -25.15210 | 148.68728 | 41141 ft | 527 kts | 173° |
| 2026-05-03 20:45 | -25.22294 | 148.70788 | 41143 ft | 527 kts | 173° |
| 2026-05-03 20:46 | -25.29382 | 148.72847 | 41142 ft | 527 kts | 173° |
| 2026-05-03 20:46 | -25.36470 | 148.74915 | 41148 ft | 527 kts | 173° |
| 2026-05-03 20:47 | -25.43564 | 148.76996 | 41143 ft | 528 kts | 173° |
| 2026-05-03 20:47 | -25.50661 | 148.79085 | 41148 ft | 527 kts | 173° |
| 2026-05-03 20:48 | -25.57753 | 148.81171 | 41155 ft | 527 kts | 173° |
| 2026-05-03 20:48 | -25.64843 | 148.83259 | 41149 ft | 528 kts | 174° |
| 2026-05-03 20:49 | -25.71948 | 148.85359 | 41152 ft | 529 kts | 174° |
| 2026-05-03 20:49 | -25.79056 | 148.87460 | 41153 ft | 529 kts | 174° |
| 2026-05-03 20:50 | -25.86166 | 148.89559 | 41143 ft | 529 kts | 174° |
| 2026-05-03 20:50 | -25.93278 | 148.91663 | 41149 ft | 529 kts | 174° |
| 2026-05-03 20:51 | -26.00392 | 148.93773 | 41149 ft | 529 kts | 174° |
| 2026-05-03 20:51 | -26.07513 | 148.95883 | 41150 ft | 529 kts | 174° |
| 2026-05-03 20:52 | -26.14634 | 148.97990 | 41145 ft | 529 kts | 174° |
| 2026-05-03 20:52 | -26.21752 | 149.00095 | 41146 ft | 530 kts | 174° |
| 2026-05-03 20:53 | -26.28882 | 149.02207 | 41148 ft | 530 kts | 174° |
| 2026-05-03 20:53 | -26.36016 | 149.04315 | 41147 ft | 530 kts | 174° |
| 2026-05-03 20:54 | -26.43140 | 149.06422 | 41148 ft | 529 kts | 174° |
| 2026-05-03 20:54 | -26.53824 | 149.09586 | 41148 ft | 530 kts | 174° |
| 2026-05-03 20:55 | -26.60958 | 149.11697 | 41150 ft | 530 kts | 174° |
| 2026-05-03 20:55 | -26.68083 | 149.13833 | 41144 ft | 531 kts | 173° |
| 2026-05-03 20:56 | -26.75183 | 149.16238 | 41148 ft | 534 kts | 171° |
| 2026-05-03 20:56 | -26.82270 | 149.18764 | 41140 ft | 535 kts | 171° |
| 2026-05-03 20:57 | -26.89360 | 149.21276 | 41138 ft | 535 kts | 171° |
| 2026-05-03 20:57 | -26.96458 | 149.23764 | 41143 ft | 534 kts | 171° |
| 2026-05-03 20:58 | -27.03511 | 149.26228 | 41149 ft | 534 kts | 171° |
| 2026-05-03 20:58 | -27.10609 | 149.28710 | 41143 ft | 534 kts | 171° |
| 2026-05-03 20:59 | -27.17706 | 149.31197 | 41144 ft | 534 kts | 171° |
| 2026-05-03 20:59 | -27.24803 | 149.33688 | 41145 ft | 534 kts | 171° |
| 2026-05-03 21:00 | -27.29551 | 149.35357 | 41158 ft | 534 kts | 171° |
| 2026-05-03 21:00 | -27.39006 | 149.38683 | 41152 ft | 536 kts | 171° |
| 2026-05-03 21:01 | -27.46122 | 149.41191 | 41146 ft | 536 kts | 171° |
| 2026-05-03 21:01 | -27.53237 | 149.43703 | 41143 ft | 536 kts | 171° |
| 2026-05-03 21:02 | -27.60354 | 149.46218 | 41157 ft | 536 kts | 172° |
| 2026-05-03 21:02 | -27.67474 | 149.48737 | 41143 ft | 537 kts | 172° |
| 2026-05-03 21:03 | -27.74602 | 149.51264 | 41146 ft | 537 kts | 172° |
| 2026-05-03 21:03 | -27.81730 | 149.53794 | 41143 ft | 537 kts | 172° |
| 2026-05-03 21:04 | -27.88857 | 149.56326 | 41162 ft | 537 kts | 172° |
| 2026-05-03 21:04 | -27.95993 | 149.58865 | 41143 ft | 538 kts | 172° |
| 2026-05-03 21:05 | -28.03137 | 149.61410 | 41147 ft | 538 kts | 172° |
| 2026-05-03 21:05 | -28.10275 | 149.63958 | 41146 ft | 538 kts | 172° |
| 2026-05-03 21:06 | -28.17418 | 149.66512 | 41158 ft | 538 kts | 172° |
| 2026-05-03 21:06 | -28.24583 | 149.68870 | 41147 ft | 534 kts | 175° |
| 2026-05-03 21:07 | -28.31778 | 149.70871 | 41143 ft | 532 kts | 176° |
| 2026-05-03 21:07 | -28.38977 | 149.72871 | 41146 ft | 533 kts | 176° |
| 2026-05-03 21:08 | -28.46174 | 149.74937 | 41149 ft | 533 kts | 176° |
| 2026-05-03 21:08 | -28.53369 | 149.77035 | 41149 ft | 534 kts | 175° |
| 2026-05-03 21:09 | -28.60569 | 149.79145 | 41148 ft | 534 kts | 175° |
| 2026-05-03 21:09 | -28.67769 | 149.81255 | 41149 ft | 534 kts | 175° |
| 2026-05-03 21:10 | -28.74967 | 149.83365 | 41155 ft | 534 kts | 176° |
| 2026-05-03 21:10 | -28.82174 | 149.85481 | 41154 ft | 535 kts | 176° |
| 2026-05-03 21:11 | -28.89377 | 149.87605 | 41151 ft | 535 kts | 176° |
| 2026-05-03 21:11 | -28.96585 | 149.89723 | 41150 ft | 535 kts | 176° |
| 2026-05-03 21:12 | -29.03787 | 149.91844 | 41152 ft | 535 kts | 176° |
| 2026-05-03 21:12 | -29.10991 | 149.93970 | 41148 ft | 535 kts | 176° |
| 2026-05-03 21:13 | -29.18195 | 149.96100 | 41155 ft | 535 kts | 176° |
| 2026-05-03 21:13 | -29.25398 | 149.98233 | 41184 ft | 535 kts | 176° |
| 2026-05-03 21:14 | -29.31390 | 150.00010 | 41151 ft | 535 kts | 176° |
| 2026-05-03 21:14 | -29.38607 | 150.02152 | 41151 ft | 536 kts | 176° |
| 2026-05-03 21:15 | -29.45821 | 150.04308 | 41154 ft | 536 kts | 176° |
| 2026-05-03 21:15 | -29.53042 | 150.06455 | 41168 ft | 536 kts | 176° |
| 2026-05-03 21:16 | -29.60273 | 150.08604 | 41161 ft | 537 kts | 176° |
| 2026-05-03 21:16 | -29.67513 | 150.10766 | 41159 ft | 538 kts | 176° |
| 2026-05-03 21:17 | -29.74758 | 150.12934 | 41159 ft | 538 kts | 176° |
| 2026-05-03 21:17 | -29.81998 | 150.15102 | 41159 ft | 538 kts | 176° |
| 2026-05-03 21:18 | -29.89238 | 150.17274 | 41159 ft | 538 kts | 176° |
| 2026-05-03 21:18 | -29.96478 | 150.19450 | 41164 ft | 537 kts | 176° |
| 2026-05-03 21:19 | -30.03706 | 150.21626 | 41164 ft | 537 kts | 176° |
| 2026-05-03 21:19 | -30.10936 | 150.23804 | 41167 ft | 537 kts | 176° |
| 2026-05-03 21:20 | -30.18185 | 150.25989 | 41165 ft | 539 kts | 176° |
| 2026-05-03 21:20 | -30.25433 | 150.28181 | 41159 ft | 538 kts | 176° |
| 2026-05-03 21:21 | -30.32680 | 150.30377 | 41202 ft | 539 kts | 176° |
| 2026-05-03 21:21 | -30.39946 | 150.32579 | 41162 ft | 540 kts | 176° |
| 2026-05-03 21:22 | -30.47216 | 150.34787 | 41164 ft | 540 kts | 176° |
| 2026-05-03 21:22 | -30.54491 | 150.37000 | 41158 ft | 540 kts | 176° |
| 2026-05-03 21:23 | -30.61765 | 150.39217 | 41155 ft | 540 kts | 176° |
| 2026-05-03 21:23 | -30.69046 | 150.41438 | 41150 ft | 542 kts | 176° |
| 2026-05-03 21:24 | -30.76338 | 150.43667 | 41151 ft | 542 kts | 176° |
| 2026-05-03 21:24 | -30.83625 | 150.45898 | 41148 ft | 542 kts | 176° |
| 2026-05-03 21:25 | -30.90907 | 150.48140 | 41149 ft | 541 kts | 176° |
| 2026-05-03 21:25 | -30.98190 | 150.50372 | 41148 ft | 541 kts | 176° |
| 2026-05-03 21:26 | -31.05472 | 150.52606 | 41150 ft | 541 kts | 176° |
| 2026-05-03 21:26 | -31.12754 | 150.54847 | 41185 ft | 542 kts | 176° |
| 2026-05-03 21:27 | -31.20056 | 150.57098 | 41151 ft | 544 kts | 176° |
| 2026-05-03 21:27 | -31.27380 | 150.59360 | 41148 ft | 545 kts | 175° |
| 2026-05-03 21:28 | -31.34711 | 150.61633 | 41152 ft | 545 kts | 175° |
| 2026-05-03 21:28 | -31.42044 | 150.63907 | 41160 ft | 545 kts | 175° |
| 2026-05-03 21:29 | -31.49391 | 150.66187 | 41158 ft | 547 kts | 175° |
| 2026-05-03 21:29 | -31.56740 | 150.68473 | 41008 ft | 546 kts | 175° |
| 2026-05-03 21:30 | -31.60412 | 150.69617 | 40526 ft | 546 kts | 175° |
| 2026-05-03 21:30 | -31.64090 | 150.70763 | 39989 ft | 547 kts | 176° |
| 2026-05-03 21:30 | -31.67778 | 150.71911 | 39543 ft | 549 kts | 176° |
| 2026-05-03 21:30 | -31.71478 | 150.73064 | 39085 ft | 551 kts | 176° |
| 2026-05-03 21:31 | -31.75191 | 150.74222 | 38591 ft | 553 kts | 176° |
| 2026-05-03 21:31 | -31.78918 | 150.75387 | 38059 ft | 555 kts | 176° |
| 2026-05-03 21:31 | -31.82650 | 150.76553 | 37526 ft | 556 kts | 176° |
| 2026-05-03 21:31 | -31.86397 | 150.77727 | 36991 ft | 557 kts | 175° |
| 2026-05-03 21:32 | -31.90140 | 150.78903 | 36527 ft | 557 kts | 175° |
| 2026-05-03 21:32 | -31.93887 | 150.80081 | 36058 ft | 557 kts | 175° |
| 2026-05-03 21:32 | -31.97633 | 150.81259 | 35568 ft | 558 kts | 175° |
| 2026-05-03 21:32 | -32.01389 | 150.82434 | 35090 ft | 558 kts | 175° |
| 2026-05-03 21:33 | -32.05157 | 150.83324 | 34626 ft | 551 kts | 180° |
| 2026-05-03 21:33 | -32.08936 | 150.84061 | 34160 ft | 550 kts | 181° |
| 2026-05-03 21:33 | -32.12717 | 150.84750 | 33633 ft | 550 kts | 181° |
| 2026-05-03 21:33 | -32.16508 | 150.85413 | 33149 ft | 551 kts | 181° |
| 2026-05-03 21:34 | -32.20307 | 150.86068 | 32635 ft | 553 kts | 180° |
| 2026-05-03 21:34 | -32.24115 | 150.86723 | 32135 ft | 554 kts | 180° |
| 2026-05-03 21:34 | -32.27938 | 150.87385 | 31632 ft | 556 kts | 180° |
| 2026-05-03 21:34 | -32.31768 | 150.88051 | 31149 ft | 557 kts | 179° |
| 2026-05-03 21:35 | -32.35613 | 150.88724 | 30671 ft | 559 kts | 179° |
| 2026-05-03 21:35 | -32.39466 | 150.89404 | 30194 ft | 560 kts | 178° |
| 2026-05-03 21:35 | -32.43312 | 150.90087 | 29645 ft | 558 kts | 178° |
| 2026-05-03 21:35 | -32.47141 | 150.90772 | 29102 ft | 554 kts | 178° |
| 2026-05-03 21:36 | -32.50938 | 150.91452 | 28569 ft | 549 kts | 178° |
| 2026-05-03 21:36 | -32.54694 | 150.92129 | 28037 ft | 543 kts | 178° |
| 2026-05-03 21:36 | -32.58406 | 150.92791 | 27529 ft | 537 kts | 178° |
| 2026-05-03 21:36 | -32.62076 | 150.93441 | 27017 ft | 530 kts | 177° |
| 2026-05-03 21:37 | -32.65709 | 150.94083 | 26534 ft | 525 kts | 177° |
| 2026-05-03 21:37 | -32.69297 | 150.94717 | 26203 ft | 518 kts | 177° |
| 2026-05-03 21:37 | -32.72848 | 150.95344 | 26127 ft | 515 kts | 177° |
| 2026-05-03 21:37 | -32.76390 | 150.95968 | 26120 ft | 514 kts | 177° |
| 2026-05-03 21:38 | -32.79923 | 150.96591 | 26121 ft | 514 kts | 177° |
| 2026-05-03 21:38 | -32.83459 | 150.97215 | 26123 ft | 514 kts | 177° |
| 2026-05-03 21:38 | -32.86992 | 150.97840 | 25977 ft | 513 kts | 177° |
| 2026-05-03 21:38 | -32.90512 | 150.98467 | 25562 ft | 511 kts | 176° |
| 2026-05-03 21:39 | -32.94020 | 150.99092 | 25124 ft | 508 kts | 176° |
| 2026-05-03 21:39 | -32.97506 | 150.99714 | 24550 ft | 504 kts | 176° |
| 2026-05-03 21:39 | -33.00954 | 151.00330 | 23982 ft | 499 kts | 176° |
| 2026-05-03 21:39 | -33.04368 | 151.00941 | 23368 ft | 493 kts | 175° |
| 2026-05-03 21:40 | -33.07743 | 151.01544 | 22716 ft | 488 kts | 175° |
| 2026-05-03 21:40 | -33.11086 | 151.02142 | 22065 ft | 483 kts | 175° |
| 2026-05-03 21:40 | -33.14393 | 151.02734 | 21432 ft | 479 kts | 175° |
| 2026-05-03 21:40 | -33.17673 | 151.03321 | 20813 ft | 474 kts | 174° |
| 2026-05-03 21:41 | -33.20920 | 151.03903 | 20208 ft | 470 kts | 174° |
| 2026-05-03 21:41 | -33.24140 | 151.04482 | 19610 ft | 466 kts | 173° |
| 2026-05-03 21:41 | -33.27335 | 151.05082 | 19024 ft | 463 kts | 173° |
| 2026-05-03 21:41 | -33.30501 | 151.05692 | 18452 ft | 459 kts | 172° |
| 2026-05-03 21:42 | -33.33146 | 151.06203 | 17912 ft | 456 kts | 172° |
| 2026-05-03 21:42 | -33.36263 | 151.06805 | 17260 ft | 452 kts | 172° |
| 2026-05-03 21:42 | -33.39347 | 151.07401 | 16626 ft | 446 kts | 173° |
| 2026-05-03 21:42 | -33.42395 | 151.07987 | 16000 ft | 441 kts | 173° |
| 2026-05-03 21:43 | -33.45403 | 151.08565 | 15401 ft | 436 kts | 173° |
| 2026-05-03 21:43 | -33.48370 | 151.09135 | 14804 ft | 428 kts | 173° |
| 2026-05-03 21:43 | -33.51287 | 151.09697 | 14219 ft | 421 kts | 173° |
| 2026-05-03 21:43 | -33.54153 | 151.10250 | 13609 ft | 414 kts | 173° |
| 2026-05-03 21:44 | -33.56976 | 151.10794 | 12952 ft | 407 kts | 173° |
| 2026-05-03 21:44 | -33.59751 | 151.11329 | 12321 ft | 401 kts | 173° |
| 2026-05-03 21:44 | -33.62487 | 151.11860 | 11699 ft | 395 kts | 172° |
| 2026-05-03 21:44 | -33.65178 | 151.12392 | 11095 ft | 389 kts | 172° |
| 2026-05-03 21:45 | -33.67833 | 151.12915 | 10500 ft | 384 kts | 172° |
| 2026-05-03 21:45 | -33.70437 | 151.13428 | 10126 ft | 373 kts | 172° |
| 2026-05-03 21:45 | -33.72932 | 151.13919 | 10010 ft | 353 kts | 173° |
| 2026-05-03 21:45 | -33.75247 | 151.14367 | 9987 ft | 321 kts | 173° |
| 2026-05-03 21:46 | -33.77359 | 151.14776 | 9933 ft | 296 kts | 173° |
| 2026-05-03 21:46 | -33.79331 | 151.15153 | 9636 ft | 283 kts | 173° |
| 2026-05-03 21:46 | -33.81263 | 151.15294 | 9230 ft | 278 kts | 186° |
| 2026-05-03 21:46 | -33.83164 | 151.14929 | 8830 ft | 276 kts | 195° |
| 2026-05-03 21:47 | -33.84995 | 151.14409 | 8368 ft | 270 kts | 196° |
| 2026-05-03 21:47 | -33.86804 | 151.13877 | 7877 ft | 266 kts | 196° |
| 2026-05-03 21:47 | -33.88575 | 151.13358 | 7390 ft | 264 kts | 197° |
| 2026-05-03 21:47 | -33.90351 | 151.12841 | 6909 ft | 263 kts | 196° |
| 2026-05-03 21:48 | -33.92139 | 151.12321 | 6445 ft | 268 kts | 196° |
| 2026-05-03 21:48 | -33.93943 | 151.11799 | 5955 ft | 273 kts | 196° |
| 2026-05-03 21:48 | -33.95807 | 151.11260 | 5466 ft | 278 kts | 196° |
| 2026-05-03 21:48 | -33.97700 | 151.10717 | 5028 ft | 280 kts | 197° |
| 2026-05-03 21:49 | -33.99593 | 151.10169 | 4625 ft | 280 kts | 196° |
| 2026-05-03 21:49 | -34.01484 | 151.09622 | 4234 ft | 279 kts | 197° |
| 2026-05-03 21:49 | -34.03352 | 151.09083 | 4020 ft | 271 kts | 196° |
| 2026-05-03 21:49 | -34.05131 | 151.08572 | 3981 ft | 255 kts | 197° |
| 2026-05-03 21:50 | -34.06819 | 151.08092 | 3841 ft | 245 kts | 195° |
| 2026-05-03 21:50 | -34.08495 | 151.07926 | 3663 ft | 241 kts | 177° |
| 2026-05-03 21:50 | -34.10115 | 151.08243 | 3486 ft | 230 kts | 169° |
| 2026-05-03 21:50 | -34.11656 | 151.08648 | 3286 ft | 224 kts | 168° |
| 2026-05-03 21:51 | -34.13175 | 151.09052 | 3085 ft | 225 kts | 168° |
| 2026-05-03 21:51 | -34.14702 | 151.09455 | 2890 ft | 224 kts | 169° |
| 2026-05-03 21:51 | -34.16216 | 151.09851 | 2698 ft | 222 kts | 168° |
| 2026-05-03 21:51 | -34.17722 | 151.10245 | 2531 ft | 221 kts | 169° |
| 2026-05-03 21:52 | -34.19228 | 151.10635 | 2491 ft | 221 kts | 169° |
| 2026-05-03 21:52 | -34.20688 | 151.11202 | 2487 ft | 223 kts | 149° |
| 2026-05-03 21:52 | -34.21724 | 151.12529 | 2490 ft | 216 kts | 111° |
| 2026-05-03 21:52 | -34.22135 | 151.14215 | 2492 ft | 206 kts | 89° |
| 2026-05-03 21:53 | -34.22067 | 151.15910 | 2502 ft | 201 kts | 75° |
| 2026-05-03 21:53 | -34.21850 | 151.17577 | 2496 ft | 201 kts | 72° |
| 2026-05-03 21:53 | -34.21615 | 151.19242 | 2488 ft | 201 kts | 73° |
| 2026-05-03 21:53 | -34.21363 | 151.20892 | 2490 ft | 198 kts | 70° |
| 2026-05-03 21:54 | -34.20760 | 151.22321 | 2495 ft | 187 kts | 44° |
| 2026-05-03 21:54 | -34.19800 | 151.23298 | 2482 ft | 177 kts | 22° |
| 2026-05-03 21:54 | -34.19029 | 151.23559 | 2499 ft | 172 kts | 4° |
| 2026-05-03 21:54 | -34.17846 | 151.23562 | 2494 ft | 169 kts | 352° |
| 2026-05-03 21:55 | -34.16695 | 151.23332 | 2492 ft | 167 kts | 347° |
| 2026-05-03 21:55 | -34.15554 | 151.23044 | 2490 ft | 168 kts | 346° |
| 2026-05-03 21:55 | -34.14406 | 151.22741 | 2493 ft | 169 kts | 346° |
| 2026-05-03 21:55 | -34.13264 | 151.22445 | 2494 ft | 167 kts | 347° |
| 2026-05-03 21:56 | -34.12125 | 151.22153 | 2488 ft | 168 kts | 346° |
| 2026-05-03 21:56 | -34.10979 | 151.21860 | 2498 ft | 168 kts | 346° |
| 2026-05-03 21:56 | -34.09833 | 151.21564 | 2492 ft | 169 kts | 346° |
| 2026-05-03 21:56 | -34.08680 | 151.21263 | 2461 ft | 170 kts | 346° |
| 2026-05-03 21:57 | -34.07530 | 151.20961 | 2269 ft | 168 kts | 346° |
| 2026-05-03 21:57 | -34.06393 | 151.20663 | 2035 ft | 167 kts | 346° |
| 2026-05-03 21:57 | -34.05293 | 151.20378 | 1801 ft | 153 kts | 346° |
| 2026-05-03 21:57 | -34.04311 | 151.20122 | 1615 ft | 137 kts | 346° |
| 2026-05-03 21:58 | -34.03393 | 151.19882 | 1436 ft | 134 kts | 346° |
| 2026-05-03 21:58 | -34.02478 | 151.19642 | 1263 ft | 135 kts | 347° |
| 2026-05-03 21:58 | -34.01558 | 151.19401 | 1078 ft | 136 kts | 347° |
| 2026-05-03 21:58 | -34.00624 | 151.19158 | 911 ft | 138 kts | 347° |
| 2026-05-03 21:59 | -33.99682 | 151.18913 | 727 ft | 139 kts | 348° |
| 2026-05-03 21:59 | -33.98723 | 151.18680 | 560 ft | 142 kts | 350° |
| 2026-05-03 21:59 | -33.97754 | 151.18413 | 376 ft | 145 kts | 343° |
| 2026-05-03 21:59 | -33.96757 | 151.18138 | 160 ft | 148 kts | 348° |
| 2026-05-03 22:00 | -33.95770 | 151.17885 | 42 ft | 139 kts | 346° |
| 2026-05-03 22:00 | -33.94946 | 151.17676 | 35 ft | 82 kts | 348° |
| 2026-05-03 22:00 | -33.94580 | 151.17569 | 36 ft | 48 kts | 339° |
| 2026-05-03 22:00 | -33.94331 | 151.17360 | 37 ft | 30 kts | 318° |
| 2026-05-03 22:01 | -33.94153 | 151.17270 | 35 ft | 29 kts | 346° |
| 2026-05-03 22:01 | -33.93994 | 151.17218 | 35 ft | 14 kts | 336° |
| 2026-05-03 22:01 | -33.93983 | 151.17172 | 36 ft | 0 kts | 257° |
| 2026-05-03 22:02 | -33.93986 | 151.17150 | 36 ft | 9 kts | 261° |
| 2026-05-03 22:02 | -33.93945 | 151.17101 | 36 ft | 10 kts | 347° |
| 2026-05-03 22:02 | -33.93869 | 151.17081 | 36 ft | 12 kts | 347° |
| 2026-05-03 22:02 | -33.93784 | 151.17055 | 36 ft | 11 kts | 336° |
| 2026-05-03 22:03 | -33.93781 | 151.17018 | 36 ft | 6 kts | 255° |
| 2026-05-03 22:03 | -33.93791 | 151.16973 | 36 ft | 0 kts | 255° |
| 2026-05-03 22:03 | -33.93795 | 151.16956 | 36 ft | 0 kts | 254° |